Querinda Park, New Mexico
Current Conditions -  °F | °C
As of 10:15 AM on Friday 31 Oct 2014 (Local Time) from KAXX Reporting Station
Clear Clear  
Wind Chill: 41°   Ceiling: Unl
Heat Index: 41°   Visibility: 10mi
Dew Point: 23°   Wind: 0mph
Humidity: 49%   Direction: NA
Pressure: 30.47"   Gusts: NA
Location:  36.7124°N, 105.403°W
Report Text: KAXX 311615Z AUTO 00000KT 10SM CLR 05/M05 A3047 RMK AO2 T00481052
Loading
Personal Weather Stations






























Interactive Weather Map
Tropical Storm Tracking
New forecast layout! Learn more

10-Day Weather Forecast

Advertisements
Track Severe Weather on mobile